Time;durP1;ratioP1;P1;durP2;ratioP2;P2;SDS_P1;SDS_P2;PMS_P1;PMS_P2;Temp;Humidity;BMP_temperature;BMP_pressure;BME280_temperature;BME280_humidity;BME280_pressure;Samples;Min_cycle;Max_cycle;Signal;HPM_P1;HPM_P2
2023/06/28 00:00:00;;;;;;;;;;;;;;;;;;1040027;28;20494;-73
2023/06/28 00:00:31;;;;;;;;;;;;;;;;;;1039886;28;19913;-73
2023/06/28 00:01:01;;;;;;;;;;;;;;;;;;1039620;28;19920;-73
2023/06/28 00:01:31;;;;;;;;;;;;;;;;;;1040028;28;19913;-73
2023/06/28 00:02:01;;;;;;;;;;;;;;;;;;1040510;28;19913;-72
2023/06/28 00:02:41;;;;;;;;;;;;;;;;;;1039924;28;19913;-72
2023/06/28 00:03:13;;;;;;;;;;;;;;;;;;1037610;28;19913;-72
2023/06/28 00:03:43;;;;;;;;;;;;;;;;;;1037997;28;20321;-72
2023/06/28 00:04:14;;;;;;;;;;;;;;;;;;1040159;28;21177;-72
2023/06/28 00:04:45;;;;;;;;;;;;;;;;;;1037174;28;19913;-72
2023/06/28 00:05:15;;;;;;;;;;;;;;;;;;1039775;28;20320;-72
2023/06/28 00:05:45;;;;;;;;;;;;;;;;;;1039915;28;19921;-72
2023/06/28 00:06:15;;;;;;;;;;;;;;;;;;1036013;28;19909;-72
2023/06/28 00:06:46;;;;;;;;;;;;;;;;;;1036353;28;19968;-72
2023/06/28 00:07:16;;;;;;;;;;;;;;;;;;1035579;28;19919;-72
2023/06/28 00:07:46;;;;;;;;;;;;;;;;;;1035828;28;19914;-72
2023/06/28 00:08:16;;;;;;;;;;;;;;;;;;1040059;28;19917;-72
2023/06/28 00:08:47;;;;;;;;;;;;;;;;;;1044530;28;19979;-72
2023/06/28 00:09:17;;;;;;;;;;;;;;;;;;1043964;28;19917;-72
2023/06/28 00:09:47;;;;;;;;;;;;;;;;;;1039801;28;19951;-72
2023/06/28 00:10:17;;;;;;;;;;;;;;;;;;1039831;28;19920;-73
2023/06/28 00:10:48;;;;;;;;;;;;;;;;;;1039888;28;19909;-73
2023/06/28 00:11:18;;;;;;;;;;;;;;;;;;1040377;28;19960;-73
2023/06/28 00:11:48;;;;;;;;;;;;;;;;;;1040210;28;19944;-73
2023/06/28 00:12:20;;;;;;;;;;;;;;;;;;1040158;28;20389;-73
2023/06/28 00:12:50;;;;;;;;;;;;;;;;;;1040122;28;20010;-73
2023/06/28 00:13:20;;;;;;;;;;;;;;;;;;1041726;28;21367;-73
2023/06/28 00:13:51;;;;;;;;;;;;;;;;;;1039963;28;20000;-73
2023/06/28 00:14:21;;;;;;;;;;;;;;;;;;1041066;28;19971;-73
2023/06/28 00:14:51;;;;;;;;;;;;;;;;;;1040758;28;19913;-73
2023/06/28 00:15:21;;;;;;;;;;;;;;;;;;1041024;28;20457;-73
2023/06/28 00:15:51;;;;;;;;;;;;;;;;;;1041304;28;20361;-73
2023/06/28 00:16:22;;;;;;;;;;;;;;;;;;1041336;28;19959;-73
2023/06/28 00:16:52;;;;;;;;;;;;;;;;;;1040787;28;19921;-73
2023/06/28 00:17:27;;;;;;;;;;;;;;;;;;1040707;28;19920;-73
2023/06/28 00:17:57;;;;;;;;;;;;;;;;;;1039755;28;19913;-73
2023/06/28 00:18:29;;;;;;;;;;;;;;;;;;1041454;28;20302;-73
2023/06/28 00:19:00;;;;;;;;;;;;;;;;;;1039244;28;20038;-73
2023/06/28 00:19:30;;;;;;;;;;;;;;;;;;1040980;28;19975;-73
2023/06/28 00:20:06;;;;;;;;;;;;;;;;;;1041092;28;19920;-73
2023/06/28 00:20:36;;;;;;;;;;;;;;;;;;1040768;28;19913;-73
2023/06/28 00:21:06;;;;;;;;;;;;;;;;;;1040671;28;19913;-73
2023/06/28 00:21:36;;;;;;;;;;;;;;;;;;1040615;28;19920;-73
2023/06/28 00:22:06;;;;;;;;;;;;;;;;;;1040818;28;19913;-73
2023/06/28 00:22:39;;;;;;;;;;;;;;;;;;1041224;28;19924;-73
2023/06/28 00:23:10;;;;;;;;;;;;;;;;;;1039804;28;19913;-73
2023/06/28 00:23:40;;;;;;;;;;;;;;;;;;1041148;28;20389;-73
2023/06/28 00:24:10;;;;;;;;;;;;;;;;;;1041054;28;19936;-73
2023/06/28 00:24:41;;;;;;;;;;;;;;;;;;1040653;28;19958;-73
2023/06/28 00:25:11;;;;;;;;;;;;;;;;;;1040687;28;19913;-73
2023/06/28 00:25:42;;;;;;;;;;;;;;;;;;1041051;28;20292;-73
2023/06/28 00:26:12;;;;;;;;;;;;;;;;;;1040824;28;19936;-73
2023/06/28 00:26:42;;;;;;;;;;;;;;;;;;1040546;28;20003;-73
2023/06/28 00:27:12;;;;;;;;;;;;;;;;;;1041154;28;19979;-73
2023/06/28 00:27:42;;;;;;;;;;;;;;;;;;1040559;28;19967;-73
2023/06/28 00:28:14;;;;;;;;;;;;;;;;;;1040735;28;20016;-73
2023/06/28 00:28:44;;;;;;;;;;;;;;;;;;1040686;28;19917;-73
2023/06/28 00:29:14;;;;;;;;;;;;;;;;;;1040547;28;19917;-73
2023/06/28 00:29:44;;;;;;;;;;;;;;;;;;1040745;28;20747;-73
2023/06/28 00:30:15;;;;;;;;;;;;;;;;;;1041223;28;20376;-73
2023/06/28 00:30:45;;;;;;;;;;;;;;;;;;1040526;28;20011;-73
2023/06/28 00:31:15;;;;;;;;;;;;;;;;;;1040351;28;20380;-73
2023/06/28 00:31:45;;;;;;;;;;;;;;;;;;1040642;28;19913;-73
2023/06/28 00:32:16;;;;;;;;;;;;;;;;;;1038287;28;20491;-73
2023/06/28 00:32:46;;;;;;;;;;;;;;;;;;1036379;28;19913;-72
2023/06/28 00:33:19;;;;;;;;;;;;;;;;;;1036484;28;19913;-73
2023/06/28 00:33:50;;;;;;;;;;;;;;;;;;1036636;28;20390;-73
2023/06/28 00:34:20;;;;;;;;;;;;;;;;;;1037465;28;19913;-72
2023/06/28 00:34:50;;;;;;;;;;;;;;;;;;1036722;28;20286;-72
2023/06/28 00:35:20;;;;;;;;;;;;;;;;;;1036844;28;20016;-72
2023/06/28 00:35:51;;;;;;;;;;;;;;;;;;1036793;28;19917;-72
2023/06/28 00:36:21;;;;;;;;;;;;;;;;;;1037344;28;19948;-72
2023/06/28 00:36:51;;;;;;;;;;;;;;;;;;1036737;28;19913;-72
2023/06/28 00:37:21;;;;;;;;;;;;;;;;;;1035514;28;19920;-72
2023/06/28 00:37:52;;;;;;;;;;;;;;;;;;1035076;28;19913;-72
2023/06/28 00:38:22;;;;;;;;;;;;;;;;;;1035244;28;19913;-72
2023/06/28 00:38:52;;;;;;;;;;;;;;;;;;1034984;28;19918;-72
2023/06/28 00:39:23;;;;;;;;;;;;;;;;;;1036661;28;19913;-73
2023/06/28 00:39:54;;;;;;;;;;;;;;;;;;1032033;28;20246;-73
2023/06/28 00:40:25;;;;;;;;;;;;;;;;;;1036815;28;20385;-73
2023/06/28 00:40:55;;;;;;;;;;;;;;;;;;1037514;28;19913;-73
2023/06/28 00:41:25;;;;;;;;;;;;;;;;;;1037303;28;19913;-73
2023/06/28 00:41:55;;;;;;;;;;;;;;;;;;1037194;28;20378;-72
2023/06/28 00:42:26;;;;;;;;;;;;;;;;;;1037083;28;20364;-72
2023/06/28 00:42:56;;;;;;;;;;;;;;;;;;1037354;28;19917;-72
2023/06/28 00:43:26;;;;;;;;;;;;;;;;;;1037551;28;20456;-73
2023/06/28 00:43:56;;;;;;;;;;;;;;;;;;1036924;28;19919;-73
2023/06/28 00:44:27;;;;;;;;;;;;;;;;;;1037202;28;20516;-73
2023/06/28 00:44:57;;;;;;;;;;;;;;;;;;1036781;28;20382;-72
2023/06/28 00:45:27;;;;;;;;;;;;;;;;;;1037063;28;19917;-72
2023/06/28 00:45:57;;;;;;;;;;;;;;;;;;1036809;28;19917;-72
2023/06/28 00:46:27;;;;;;;;;;;;;;;;;;1037442;28;19924;-72
2023/06/28 00:46:58;;;;;;;;;;;;;;;;;;1036961;28;19913;-72
2023/06/28 00:47:28;;;;;;;;;;;;;;;;;;1037019;28;19913;-72
2023/06/28 00:47:58;;;;;;;;;;;;;;;;;;1037814;28;19919;-72
2023/06/28 00:48:29;;;;;;;;;;;;;;;;;;1037339;28;20282;-72
2023/06/28 00:48:59;;;;;;;;;;;;;;;;;;1037125;28;19917;-72
2023/06/28 00:49:29;;;;;;;;;;;;;;;;;;1037306;28;19920;-72
2023/06/28 00:50:00;;;;;;;;;;;;;;;;;;1037175;28;19913;-72
2023/06/28 00:50:30;;;;;;;;;;;;;;;;;;1037761;28;19917;-72
2023/06/28 00:51:00;;;;;;;;;;;;;;;;;;1037057;28;19913;-72
2023/06/28 00:51:30;;;;;;;;;;;;;;;;;;1036694;28;19921;-72
2023/06/28 00:52:00;;;;;;;;;;;;;;;;;;1037340;28;19963;-72
2023/06/28 00:52:31;;;;;;;;;;;;;;;;;;1038001;28;19913;-72
2023/06/28 00:53:01;;;;;;;;;;;;;;;;;;1036815;28;19916;-73
2023/06/28 00:53:32;;;;;;;;;;;;;;;;;;1036295;28;19928;-73
2023/06/28 00:54:02;;;;;;;;;;;;;;;;;;1036568;28;19913;-73
2023/06/28 00:54:32;;;;;;;;;;;;;;;;;;1036815;28;20548;-73
2023/06/28 00:55:03;;;;;;;;;;;;;;;;;;1036025;28;20533;-73
2023/06/28 00:55:33;;;;;;;;;;;;;;;;;;1036428;28;19913;-73
2023/06/28 00:56:03;;;;;;;;;;;;;;;;;;1036420;28;19917;-73
2023/06/28 00:56:34;;;;;;;;;;;;;;;;;;1035511;28;19978;-73
2023/06/28 00:57:05;;;;;;;;;;;;;;;;;;1034386;28;20004;-73
2023/06/28 00:57:35;;;;;;;;;;;;;;;;;;1034713;28;19917;-73
2023/06/28 00:58:05;;;;;;;;;;;;;;;;;;1034578;28;19957;-73
2023/06/28 00:58:35;;;;;;;;;;;;;;;;;;1033197;28;20440;-73
2023/06/28 00:59:06;;;;;;;;;;;;;;;;;;1036824;28;20411;-73
2023/06/28 00:59:36;;;;;;;;;;;;;;;;;;1036763;28;20388;-73
2023/06/28 01:00:11;;;;;;;;;;;;;;;;;;1036969;28;20471;-72
2023/06/28 01:00:44;;;;;;;;;;;;;;;;;;1037085;28;19920;-72
2023/06/28 01:01:15;;;;;;;;;;;;;;;;;;1035716;28;20567;-72
2023/06/28 01:01:45;;;;;;;;;;;;;;;;;;1037367;28;20014;-72
2023/06/28 01:02:15;;;;;;;;;;;;;;;;;;1037122;28;20462;-72
2023/06/28 01:02:45;;;;;;;;;;;;;;;;;;1040128;28;19913;-72
2023/06/28 01:03:17;;;;;;;;;;;;;;;;;;1040299;28;19953;-72
2023/06/28 01:03:51;;;;;;;;;;;;;;;;;;1040430;28;19913;-72
2023/06/28 01:04:21;;;;;;;;;;;;;;;;;;1041323;28;19944;-72
2023/06/28 01:04:57;;;;;;;;;;;;;;;;;;1040232;28;19959;-72
2023/06/28 01:05:27;;;;;;;;;;;;;;;;;;1039360;28;20027;-72
2023/06/28 01:05:58;;;;;;;;;;;;;;;;;;1038483;28;20459;-72
2023/06/28 01:06:31;;;;;;;;;;;;;;;;;;1039223;28;20470;-72
2023/06/28 01:07:01;;;;;;;;;;;;;;;;;;1038767;28;19959;-72
2023/06/28 01:07:35;;;;;;;;;;;;;;;;;;1040496;28;20404;-72
2023/06/28 01:08:05;;;;;;;;;;;;;;;;;;1040916;28;20015;-72
2023/06/28 01:08:35;;;;;;;;;;;;;;;;;;1041463;28;20288;-72
2023/06/28 01:09:07;;;;;;;;;;;;;;;;;;1040857;28;19913;-72
2023/06/28 01:09:38;;;;;;;;;;;;;;;;;;1040400;28;19913;-72
2023/06/28 01:10:08;;;;;;;;;;;;;;;;;;1040441;28;19913;-72
2023/06/28 01:10:38;;;;;;;;;;;;;;;;;;1040652;28;19913;-72
2023/06/28 01:11:08;;;;;;;;;;;;;;;;;;1040290;28;20155;-72
2023/06/28 01:11:39;;;;;;;;;;;;;;;;;;1040539;28;20020;-72
2023/06/28 01:12:09;;;;;;;;;;;;;;;;;;1040611;28;19971;-72
2023/06/28 01:12:39;;;;;;;;;;;;;;;;;;1040908;28;19917;-72
2023/06/28 01:13:09;;;;;;;;;;;;;;;;;;1040591;28;19976;-72
2023/06/28 01:13:40;;;;;;;;;;;;;;;;;;1040578;28;19948;-72
2023/06/28 01:14:10;;;;;;;;;;;;;;;;;;1040776;28;19913;-72
2023/06/28 01:14:40;;;;;;;;;;;;;;;;;;1040324;28;19920;-72
2023/06/28 01:15:10;;;;;;;;;;;;;;;;;;1040575;28;19913;-72
2023/06/28 01:15:40;;;;;;;;;;;;;;;;;;1040709;28;19920;-72
2023/06/28 01:16:11;;;;;;;;;;;;;;;;;;1040736;28;20373;-72
2023/06/28 01:16:41;;;;;;;;;;;;;;;;;;1040742;28;19920;-72
2023/06/28 01:17:11;;;;;;;;;;;;;;;;;;1040785;28;20324;-72
2023/06/28 01:17:41;;;;;;;;;;;;;;;;;;1040958;28;20373;-72
2023/06/28 01:18:12;;;;;;;;;;;;;;;;;;1041135;28;20274;-72
2023/06/28 01:18:42;;;;;;;;;;;;;;;;;;1041238;28;20293;-73
2023/06/28 01:19:13;;;;;;;;;;;;;;;;;;1040473;28;19920;-73
2023/06/28 01:19:43;;;;;;;;;;;;;;;;;;1040890;28;20012;-73
2023/06/28 01:20:14;;;;;;;;;;;;;;;;;;1041398;28;20369;-73
2023/06/28 01:20:44;;;;;;;;;;;;;;;;;;1040350;28;20388;-73
2023/06/28 01:21:14;;;;;;;;;;;;;;;;;;1040357;28;19913;-73
2023/06/28 01:21:45;;;;;;;;;;;;;;;;;;1040470;28;19963;-73
2023/06/28 01:22:15;;;;;;;;;;;;;;;;;;1041141;28;19917;-72
2023/06/28 01:22:45;;;;;;;;;;;;;;;;;;1040292;28;19913;-72
2023/06/28 01:23:15;;;;;;;;;;;;;;;;;;1040297;28;19920;-72
2023/06/28 01:23:46;;;;;;;;;;;;;;;;;;1040061;28;19964;-72
2023/06/28 01:24:16;;;;;;;;;;;;;;;;;;1040147;28;19920;-72
2023/06/28 01:24:46;;;;;;;;;;;;;;;;;;1040748;28;19960;-72
2023/06/28 01:25:17;;;;;;;;;;;;;;;;;;1040380;28;20278;-72
2023/06/28 01:25:47;;;;;;;;;;;;;;;;;;1040808;28;19913;-72
2023/06/28 01:26:17;;;;;;;;;;;;;;;;;;1041140;28;19921;-72
2023/06/28 01:26:51;;;;;;;;;;;;;;;;;;1041390;28;19928;-72
2023/06/28 01:27:22;;;;;;;;;;;;;;;;;;1040004;28;20365;-72
2023/06/28 01:27:52;;;;;;;;;;;;;;;;;;1040711;28;19913;-72
2023/06/28 01:28:22;;;;;;;;;;;;;;;;;;1040653;28;20353;-72
2023/06/28 01:28:52;;;;;;;;;;;;;;;;;;1040542;28;19947;-72
2023/06/28 01:29:24;;;;;;;;;;;;;;;;;;1041588;28;19964;-72
2023/06/28 01:29:56;;;;;;;;;;;;;;;;;;1040666;28;19913;-72
2023/06/28 01:30:26;;;;;;;;;;;;;;;;;;1040575;28;20409;-72
2023/06/28 01:30:56;;;;;;;;;;;;;;;;;;1039997;28;19914;-72
2023/06/28 01:31:26;;;;;;;;;;;;;;;;;;1040786;28;20058;-72
2023/06/28 01:31:57;;;;;;;;;;;;;;;;;;1040391;28;19913;-72
2023/06/28 01:32:27;;;;;;;;;;;;;;;;;;1040648;28;19917;-72
2023/06/28 01:32:57;;;;;;;;;;;;;;;;;;1040153;28;20016;-73
2023/06/28 01:33:27;;;;;;;;;;;;;;;;;;1040501;28;20292;-73
2023/06/28 01:33:58;;;;;;;;;;;;;;;;;;1040759;28;19915;-73
2023/06/28 01:34:29;;;;;;;;;;;;;;;;;;1040494;28;19963;-73
2023/06/28 01:34:59;;;;;;;;;;;;;;;;;;1040214;28;20329;-73
2023/06/28 01:35:31;;;;;;;;;;;;;;;;;;1040353;28;19991;-73
2023/06/28 01:36:01;;;;;;;;;;;;;;;;;;1040875;28;19914;-73
2023/06/28 01:36:32;;;;;;;;;;;;;;;;;;1040514;28;19960;-73
2023/06/28 01:37:02;;;;;;;;;;;;;;;;;;1040078;28;19913;-73
2023/06/28 01:37:32;;;;;;;;;;;;;;;;;;1040416;28;19943;-73
2023/06/28 01:38:02;;;;;;;;;;;;;;;;;;1040542;28;19963;-73
2023/06/28 01:38:32;;;;;;;;;;;;;;;;;;1041047;28;19941;-73
2023/06/28 01:39:03;;;;;;;;;;;;;;;;;;1040698;28;19913;-73
2023/06/28 01:39:33;;;;;;;;;;;;;;;;;;1040714;28;19917;-73
2023/06/28 01:40:04;;;;;;;;;;;;;;;;;;1040276;28;19918;-73
2023/06/28 01:40:36;;;;;;;;;;;;;;;;;;1041470;28;19913;-73
2023/06/28 01:41:06;;;;;;;;;;;;;;;;;;1040233;28;20448;-73
2023/06/28 01:41:36;;;;;;;;;;;;;;;;;;1040323;28;20012;-73
2023/06/28 01:42:06;;;;;;;;;;;;;;;;;;1040530;28;19920;-73
2023/06/28 01:42:37;;;;;;;;;;;;;;;;;;1040457;28;19936;-73
2023/06/28 01:43:07;;;;;;;;;;;;;;;;;;1040721;28;20004;-73
2023/06/28 01:43:39;;;;;;;;;;;;;;;;;;1039987;28;19917;-73
2023/06/28 01:44:10;;;;;;;;;;;;;;;;;;1040231;28;19941;-73
2023/06/28 01:44:40;;;;;;;;;;;;;;;;;;1038884;28;19914;-73
2023/06/28 01:45:10;;;;;;;;;;;;;;;;;;1042770;28;19919;-73
2023/06/28 01:45:40;;;;;;;;;;;;;;;;;;1042481;28;20027;-73
2023/06/28 01:46:11;;;;;;;;;;;;;;;;;;1042479;28;19913;-73
2023/06/28 01:46:41;;;;;;;;;;;;;;;;;;1040514;28;19920;-73
2023/06/28 01:47:11;;;;;;;;;;;;;;;;;;1040562;28;19928;-73
2023/06/28 01:47:41;;;;;;;;;;;;;;;;;;1040676;28;19923;-72
2023/06/28 01:48:12;;;;;;;;;;;;;;;;;;1040958;28;20027;-72
2023/06/28 01:48:42;;;;;;;;;;;;;;;;;;1040544;28;19913;-72
2023/06/28 01:49:12;;;;;;;;;;;;;;;;;;1039969;28;20020;-72
2023/06/28 01:49:42;;;;;;;;;;;;;;;;;;1040332;28;19956;-72
2023/06/28 01:50:13;;;;;;;;;;;;;;;;;;1040708;28;19913;-72
2023/06/28 01:50:43;;;;;;;;;;;;;;;;;;1040299;28;19913;-73
2023/06/28 01:51:13;;;;;;;;;;;;;;;;;;1040394;28;19924;-72
2023/06/28 01:51:43;;;;;;;;;;;;;;;;;;1040493;28;19917;-72
2023/06/28 01:52:13;;;;;;;;;;;;;;;;;;1040951;28;19913;-72
2023/06/28 01:52:44;;;;;;;;;;;;;;;;;;1040560;28;19939;-72
2023/06/28 01:53:14;;;;;;;;;;;;;;;;;;1040688;28;19919;-72
2023/06/28 01:53:44;;;;;;;;;;;;;;;;;;1040361;28;20426;-72
2023/06/28 01:54:14;;;;;;;;;;;;;;;;;;1040498;28;20012;-72
2023/06/28 01:54:45;;;;;;;;;;;;;;;;;;1040400;28;20016;-72
2023/06/28 01:55:15;;;;;;;;;;;;;;;;;;1039990;28;19920;-72
2023/06/28 01:55:45;;;;;;;;;;;;;;;;;;1040892;28;19945;-72
2023/06/28 01:56:15;;;;;;;;;;;;;;;;;;1040705;28;20413;-72
2023/06/28 01:56:45;;;;;;;;;;;;;;;;;;1040589;28;20008;-72
2023/06/28 01:57:16;;;;;;;;;;;;;;;;;;1040158;28;19987;-72
2023/06/28 01:57:46;;;;;;;;;;;;;;;;;;1040391;28;19967;-72
2023/06/28 01:58:16;;;;;;;;;;;;;;;;;;1040600;28;19919;-72
2023/06/28 01:58:47;;;;;;;;;;;;;;;;;;1040716;28;20188;-72
2023/06/28 01:59:17;;;;;;;;;;;;;;;;;;1040824;28;19939;-72
2023/06/28 01:59:47;;;;;;;;;;;;;;;;;;1040649;28;19954;-72
2023/06/28 02:00:17;;;;;;;;;;;;;;;;;;1040754;28;20015;-72
2023/06/28 02:00:48;;;;;;;;;;;;;;;;;;1040643;28;19952;-72
2023/06/28 02:01:18;;;;;;;;;;;;;;;;;;1041152;28;20017;-72
2023/06/28 02:01:48;;;;;;;;;;;;;;;;;;1040702;28;20670;-72
2023/06/28 02:02:18;;;;;;;;;;;;;;;;;;1040615;28;19913;-72
2023/06/28 02:02:50;;;;;;;;;;;;;;;;;;1039981;28;20463;-72
2023/06/28 02:03:20;;;;;;;;;;;;;;;;;;1040516;28;19914;-72
2023/06/28 02:03:50;;;;;;;;;;;;;;;;;;1038388;28;19910;-72
2023/06/28 02:04:21;;;;;;;;;;;;;;;;;;1040382;28;20012;-72
2023/06/28 02:04:51;;;;;;;;;;;;;;;;;;1040119;28;19913;-72
2023/06/28 02:05:21;;;;;;;;;;;;;;;;;;1038552;28;20487;-72
2023/06/28 02:05:51;;;;;;;;;;;;;;;;;;1039249;28;19955;-72
2023/06/28 02:06:22;;;;;;;;;;;;;;;;;;1038369;28;19947;-72
2023/06/28 02:06:52;;;;;;;;;;;;;;;;;;1037615;28;19924;-72
2023/06/28 02:07:22;;;;;;;;;;;;;;;;;;1036266;28;19913;-72
2023/06/28 02:07:52;;;;;;;;;;;;;;;;;;1036272;28;20297;-72
2023/06/28 02:08:22;;;;;;;;;;;;;;;;;;1040877;28;20372;-72
2023/06/28 02:08:53;;;;;;;;;;;;;;;;;;1040294;28;20294;-72
2023/06/28 02:09:23;;;;;;;;;;;;;;;;;;1040236;28;19913;-72
2023/06/28 02:09:53;;;;;;;;;;;;;;;;;;1035642;28;20004;-72
2023/06/28 02:10:24;;;;;;;;;;;;;;;;;;1036508;28;20012;-72
2023/06/28 02:10:54;;;;;;;;;;;;;;;;;;1035809;28;20460;-72
2023/06/28 02:11:24;;;;;;;;;;;;;;;;;;1040308;28;20317;-72
2023/06/28 02:11:54;;;;;;;;;;;;;;;;;;1040552;28;19975;-72
2023/06/28 02:12:25;;;;;;;;;;;;;;;;;;1040759;28;19924;-72
2023/06/28 02:12:55;;;;;;;;;;;;;;;;;;1040712;28;19913;-72
2023/06/28 02:13:25;;;;;;;;;;;;;;;;;;1039541;28;19913;-72
2023/06/28 02:13:55;;;;;;;;;;;;;;;;;;1040727;28;19919;-72
2023/06/28 02:14:26;;;;;;;;;;;;;;;;;;1040908;28;19959;-72
2023/06/28 02:14:56;;;;;;;;;;;;;;;;;;1040883;28;19917;-72
2023/06/28 02:15:26;;;;;;;;;;;;;;;;;;1040738;28;19917;-72
2023/06/28 02:15:56;;;;;;;;;;;;;;;;;;1040661;28;20004;-72
2023/06/28 02:16:27;;;;;;;;;;;;;;;;;;1040915;28;20003;-72
2023/06/28 02:16:58;;;;;;;;;;;;;;;;;;1039758;28;19976;-72
2023/06/28 02:17:31;;;;;;;;;;;;;;;;;;1040479;28;20439;-72
2023/06/28 02:18:01;;;;;;;;;;;;;;;;;;1040215;28;20404;-72
2023/06/28 02:18:31;;;;;;;;;;;;;;;;;;1040340;28;20008;-72
2023/06/28 02:19:02;;;;;;;;;;;;;;;;;;1040279;28;19920;-72
2023/06/28 02:19:34;;;;;;;;;;;;;;;;;;1040495;28;19917;-72
2023/06/28 02:20:05;;;;;;;;;;;;;;;;;;1040382;28;19917;-72
2023/06/28 02:20:36;;;;;;;;;;;;;;;;;;1038473;28;20461;-72
2023/06/28 02:21:06;;;;;;;;;;;;;;;;;;1038056;28;19913;-72
2023/06/28 02:21:36;;;;;;;;;;;;;;;;;;1037923;28;19913;-72
2023/06/28 02:22:07;;;;;;;;;;;;;;;;;;1038642;28;19936;-72
2023/06/28 02:22:37;;;;;;;;;;;;;;;;;;1040490;28;19917;-72
2023/06/28 02:23:07;;;;;;;;;;;;;;;;;;1040349;28;20403;-72
2023/06/28 02:23:38;;;;;;;;;;;;;;;;;;1040125;28;19913;-72
2023/06/28 02:24:11;;;;;;;;;;;;;;;;;;1040672;28;20354;-72
2023/06/28 02:24:41;;;;;;;;;;;;;;;;;;1040124;28;19936;-72
2023/06/28 02:25:12;;;;;;;;;;;;;;;;;;1039881;28;19917;-72
2023/06/28 02:25:42;;;;;;;;;;;;;;;;;;1040258;28;19936;-72
2023/06/28 02:26:12;;;;;;;;;;;;;;;;;;1040583;28;20059;-72
2023/06/28 02:26:42;;;;;;;;;;;;;;;;;;1040156;28;19972;-72
2023/06/28 02:27:12;;;;;;;;;;;;;;;;;;1040085;28;19964;-72
2023/06/28 02:27:43;;;;;;;;;;;;;;;;;;1040325;28;19919;-72
2023/06/28 02:28:13;;;;;;;;;;;;;;;;;;1040521;28;20396;-72
2023/06/28 02:28:43;;;;;;;;;;;;;;;;;;1040316;28;19913;-72
2023/06/28 02:29:14;;;;;;;;;;;;;;;;;;1040391;28;20414;-72
2023/06/28 02:29:45;;;;;;;;;;;;;;;;;;1040426;28;19976;-72
2023/06/28 02:30:15;;;;;;;;;;;;;;;;;;1040521;28;19953;-72
2023/06/28 02:30:45;;;;;;;;;;;;;;;;;;1040127;28;19917;-72
2023/06/28 02:31:16;;;;;;;;;;;;;;;;;;1040425;28;19920;-72
2023/06/28 02:31:46;;;;;;;;;;;;;;;;;;1039160;28;19917;-72
2023/06/28 02:32:16;;;;;;;;;;;;;;;;;;1040778;28;19917;-72
2023/06/28 02:32:47;;;;;;;;;;;;;;;;;;1040164;28;19920;-72
2023/06/28 02:33:17;;;;;;;;;;;;;;;;;;1040043;28;19937;-72
2023/06/28 02:33:47;;;;;;;;;;;;;;;;;;1040040;28;20404;-72
2023/06/28 02:34:17;;;;;;;;;;;;;;;;;;1040254;28;19921;-72
2023/06/28 02:34:48;;;;;;;;;;;;;;;;;;1040027;28;20012;-72
2023/06/28 02:35:18;;;;;;;;;;;;;;;;;;1039744;28;19958;-72
2023/06/28 02:35:48;;;;;;;;;;;;;;;;;;1040056;28;19913;-72
2023/06/28 02:36:19;;;;;;;;;;;;;;;;;;1040806;28;20009;-72
2023/06/28 02:36:49;;;;;;;;;;;;;;;;;;1040172;28;20470;-72
2023/06/28 02:37:19;;;;;;;;;;;;;;;;;;1040307;28;19913;-72
2023/06/28 02:37:49;;;;;;;;;;;;;;;;;;1041023;28;19917;-72
2023/06/28 02:38:20;;;;;;;;;;;;;;;;;;1040461;28;19913;-72
2023/06/28 02:38:50;;;;;;;;;;;;;;;;;;1038599;28;19913;-72
2023/06/28 02:39:20;;;;;;;;;;;;;;;;;;1040107;28;19913;-72
2023/06/28 02:39:50;;;;;;;;;;;;;;;;;;1038051;28;19917;-72
2023/06/28 02:40:21;;;;;;;;;;;;;;;;;;1039804;28;19921;-72
2023/06/28 02:40:52;;;;;;;;;;;;;;;;;;1040223;28;19979;-72
2023/06/28 02:41:22;;;;;;;;;;;;;;;;;;1040257;28;19935;-72
2023/06/28 02:41:52;;;;;;;;;;;;;;;;;;1040174;28;19913;-72
2023/06/28 02:42:22;;;;;;;;;;;;;;;;;;1041081;28;20280;-72
2023/06/28 02:42:53;;;;;;;;;;;;;;;;;;1039993;28;19920;-72
2023/06/28 02:43:23;;;;;;;;;;;;;;;;;;1040104;28;19967;-72
2023/06/28 02:43:53;;;;;;;;;;;;;;;;;;1040276;28;19987;-72
2023/06/28 02:44:23;;;;;;;;;;;;;;;;;;1040313;28;20008;-72
2023/06/28 02:44:53;;;;;;;;;;;;;;;;;;1040094;28;20424;-72
2023/06/28 02:45:24;;;;;;;;;;;;;;;;;;1040859;28;19913;-71
2023/06/28 02:45:54;;;;;;;;;;;;;;;;;;1040521;28;19913;-72
2023/06/28 02:46:24;;;;;;;;;;;;;;;;;;1040572;28;19919;-72
2023/06/28 02:46:55;;;;;;;;;;;;;;;;;;1040894;28;20445;-72
2023/06/28 02:47:25;;;;;;;;;;;;;;;;;;1040516;28;20424;-72
2023/06/28 02:47:55;;;;;;;;;;;;;;;;;;1040571;28;19913;-72
2023/06/28 02:48:25;;;;;;;;;;;;;;;;;;1040211;28;19913;-72
2023/06/28 02:48:56;;;;;;;;;;;;;;;;;;1039822;28;19909;-72
2023/06/28 02:49:26;;;;;;;;;;;;;;;;;;1040386;28;19913;-72
2023/06/28 02:49:56;;;;;;;;;;;;;;;;;;1040117;28;19916;-72
2023/06/28 02:50:26;;;;;;;;;;;;;;;;;;1040539;28;19919;-72
2023/06/28 02:50:57;;;;;;;;;;;;;;;;;;1039757;28;19913;-72
2023/06/28 02:51:27;;;;;;;;;;;;;;;;;;1040589;28;20439;-72
2023/06/28 02:51:57;;;;;;;;;;;;;;;;;;1042162;28;19917;-72
2023/06/28 02:52:27;;;;;;;;;;;;;;;;;;1042607;28;19976;-72
2023/06/28 02:52:58;;;;;;;;;;;;;;;;;;1038025;28;19917;-72
2023/06/28 02:53:28;;;;;;;;;;;;;;;;;;1037769;28;20293;-72
2023/06/28 02:53:58;;;;;;;;;;;;;;;;;;1040368;28;19913;-72
2023/06/28 02:54:28;;;;;;;;;;;;;;;;;;1040319;28;19920;-72
2023/06/28 02:54:59;;;;;;;;;;;;;;;;;;1039571;28;19913;-72
2023/06/28 02:55:29;;;;;;;;;;;;;;;;;;1040160;28;19913;-72
2023/06/28 02:55:59;;;;;;;;;;;;;;;;;;1040035;28;20424;-72
2023/06/28 02:56:29;;;;;;;;;;;;;;;;;;1040241;28;19917;-72
2023/06/28 02:57:00;;;;;;;;;;;;;;;;;;1040106;28;19917;-72
2023/06/28 02:57:30;;;;;;;;;;;;;;;;;;1040511;28;19920;-72
2023/06/28 02:58:00;;;;;;;;;;;;;;;;;;1040140;28;19913;-72
2023/06/28 02:58:30;;;;;;;;;;;;;;;;;;1040344;28;19913;-72
2023/06/28 02:59:01;;;;;;;;;;;;;;;;;;1040024;28;19919;-72
2023/06/28 02:59:31;;;;;;;;;;;;;;;;;;1039867;28;20004;-73
2023/06/28 03:00:01;;;;;;;;;;;;;;;;;;1040233;28;20428;-73
2023/06/28 03:00:32;;;;;;;;;;;;;;;;;;1041016;28;20311;-73
2023/06/28 03:01:03;;;;;;;;;;;;;;;;;;1039871;28;19925;-72
2023/06/28 03:01:33;;;;;;;;;;;;;;;;;;1035747;28;19913;-72
2023/06/28 03:02:04;;;;;;;;;;;;;;;;;;1036111;28;19917;-72
2023/06/28 03:02:34;;;;;;;;;;;;;;;;;;1036217;28;19917;-72
2023/06/28 03:03:08;;;;;;;;;;;;;;;;;;1040284;28;20328;-72
2023/06/28 03:03:39;;;;;;;;;;;;;;;;;;1039882;28;19917;-72
2023/06/28 03:04:10;;;;;;;;;;;;;;;;;;1040485;28;19917;-72
2023/06/28 03:04:41;;;;;;;;;;;;;;;;;;1040001;28;20254;-72
2023/06/28 03:05:11;;;;;;;;;;;;;;;;;;1040186;28;19952;-72
2023/06/28 03:05:41;;;;;;;;;;;;;;;;;;1040093;28;19917;-72
2023/06/28 03:06:11;;;;;;;;;;;;;;;;;;1040325;28;19913;-72
2023/06/28 03:06:42;;;;;;;;;;;;;;;;;;1039947;28;19913;-72
2023/06/28 03:07:12;;;;;;;;;;;;;;;;;;1041055;28;19920;-72
2023/06/28 03:07:42;;;;;;;;;;;;;;;;;;1042814;28;19983;-72
2023/06/28 03:08:12;;;;;;;;;;;;;;;;;;1038477;28;19946;-72
2023/06/28 03:08:43;;;;;;;;;;;;;;;;;;1037619;28;20419;-72
2023/06/28 03:09:13;;;;;;;;;;;;;;;;;;1039254;28;20372;-72
2023/06/28 03:09:43;;;;;;;;;;;;;;;;;;1040463;28;19920;-72
2023/06/28 03:10:14;;;;;;;;;;;;;;;;;;1040617;28;19913;-72
2023/06/28 03:10:45;;;;;;;;;;;;;;;;;;1040347;28;19964;-72
2023/06/28 03:11:15;;;;;;;;;;;;;;;;;;1040360;28;20274;-72
2023/06/28 03:11:45;;;;;;;;;;;;;;;;;;1039380;28;19999;-72
2023/06/28 03:12:15;;;;;;;;;;;;;;;;;;1040975;28;19964;-72
2023/06/28 03:12:46;;;;;;;;;;;;;;;;;;1039997;28;19939;-72
2023/06/28 03:13:16;;;;;;;;;;;;;;;;;;1040141;28;20373;-72
2023/06/28 03:13:46;;;;;;;;;;;;;;;;;;1039915;28;20301;-72
2023/06/28 03:14:16;;;;;;;;;;;;;;;;;;1040148;28;19913;-72
2023/06/28 03:14:47;;;;;;;;;;;;;;;;;;1040358;28;19917;-72
2023/06/28 03:15:17;;;;;;;;;;;;;;;;;;1040019;28;19967;-72
2023/06/28 03:15:47;;;;;;;;;;;;;;;;;;1040066;28;19963;-72
2023/06/28 03:16:17;;;;;;;;;;;;;;;;;;1040451;28;19917;-72
2023/06/28 03:16:47;;;;;;;;;;;;;;;;;;1039866;28;19924;-72
2023/06/28 03:17:19;;;;;;;;;;;;;;;;;;1040888;28;19920;-72
2023/06/28 03:17:49;;;;;;;;;;;;;;;;;;1039890;28;19913;-72
2023/06/28 03:18:19;;;;;;;;;;;;;;;;;;1040823;28;19913;-72
2023/06/28 03:18:50;;;;;;;;;;;;;;;;;;1040139;28;19919;-72
2023/06/28 03:19:20;;;;;;;;;;;;;;;;;;1040930;28;19920;-72
2023/06/28 03:19:50;;;;;;;;;;;;;;;;;;1040012;28;20445;-72
2023/06/28 03:20:20;;;;;;;;;;;;;;;;;;1040195;28;19917;-72
2023/06/28 03:20:51;;;;;;;;;;;;;;;;;;1039976;28;19913;-72
2023/06/28 03:21:21;;;;;;;;;;;;;;;;;;1039520;28;20031;-72
2023/06/28 03:21:51;;;;;;;;;;;;;;;;;;1039768;28;19917;-72
2023/06/28 03:22:22;;;;;;;;;;;;;;;;;;1040177;28;20062;-72
2023/06/28 03:22:52;;;;;;;;;;;;;;;;;;1039944;28;19913;-72
2023/06/28 03:23:22;;;;;;;;;;;;;;;;;;1038194;28;20336;-72
2023/06/28 03:23:52;;;;;;;;;;;;;;;;;;1041994;28;20003;-72
2023/06/28 03:24:23;;;;;;;;;;;;;;;;;;1037199;28;19918;-72
2023/06/28 03:24:53;;;;;;;;;;;;;;;;;;1037631;28;19913;-72
2023/06/28 03:25:23;;;;;;;;;;;;;;;;;;1040024;28;19917;-72
2023/06/28 03:25:53;;;;;;;;;;;;;;;;;;1039823;28;19921;-72
2023/06/28 03:26:24;;;;;;;;;;;;;;;;;;1040534;28;19913;-72
2023/06/28 03:26:54;;;;;;;;;;;;;;;;;;1040314;28;19913;-72
2023/06/28 03:27:24;;;;;;;;;;;;;;;;;;1040424;28;19943;-72
2023/06/28 03:27:54;;;;;;;;;;;;;;;;;;1040199;28;19914;-72